Time,TemperatureF,DewpointF,PressureIn,WindDirection,WindDirectionDegrees,WindSpeedMPH,WindSpeedGustMPH,Humidity,HourlyPrecipIn,Conditions,Clouds,dailyrainin,SoftwareType,DateUTC
2013-09-16 00:15:00,61.7,60.8,30.15,West,267,0.0,0.0,97,0.00,,,0.00,Wunderground v.1.15,2013-09-16 04:15:00,
2013-09-16 00:20:00,61.8,60.9,30.15,West,267,0.0,0.0,97,0.00,,,0.00,Wunderground v.1.15,2013-09-16 04:20:00,
2013-09-16 00:30:00,61.7,60.8,30.15,West,267,0.0,0.0,97,0.00,,,0.00,Wunderground v.1.15,2013-09-16 04:30:00,
2013-09-16 00:35:00,61.7,60.8,30.15,West,267,0.0,0.0,97,0.00,,,0.00,Wunderground v.1.15,2013-09-16 04:35:00,
2013-09-16 00:40:00,61.8,60.9,30.15,West,267,0.0,0.0,97,0.00,,,0.00,Wunderground v.1.15,2013-09-16 04:40:00,
2013-09-16 00:45:00,61.8,60.9,30.15,West,267,0.0,0.0,97,0.00,,,0.00,Wunderground v.1.15,2013-09-16 04:45:00,
2013-09-16 00:50:00,61.8,60.9,30.15,West,267,0.0,0.0,97,0.00,,,0.00,Wunderground v.1.15,2013-09-16 04:50:00,
2013-09-16 01:00:00,61.7,60.8,30.15,West,267,0.0,0.0,97,0.00,,,0.00,Wunderground v.1.15,2013-09-16 05:00:00,
2013-09-16 01:05:00,61.7,60.8,30.15,West,267,0.0,0.0,97,0.00,,,0.00,Wunderground v.1.15,2013-09-16 05:05:00,
2013-09-16 01:15:00,61.8,60.9,30.14,West,267,0.0,0.0,97,0.00,,,0.00,Wunderground v.1.15,2013-09-16 05:15:00,
2013-09-16 01:20:00,61.8,61.2,30.14,West,267,0.0,0.0,98,0.00,,,0.00,Wunderground v.1.15,2013-09-16 05:20:00,
2013-09-16 01:25:00,61.9,61.3,30.14,West,267,0.0,0.0,98,0.00,,,0.00,Wunderground v.1.15,2013-09-16 05:25:00,
2013-09-16 01:30:00,62.0,61.4,30.15,West,267,0.0,0.0,98,0.00,,,0.00,Wunderground v.1.15,2013-09-16 05:30:00,
2013-09-16 01:40:00,62.1,61.5,30.15,West,267,0.0,0.0,98,0.00,,,0.00,Wunderground v.1.15,2013-09-16 05:40:00,
2013-09-16 01:50:00,62.2,61.6,30.14,West,267,0.0,0.0,98,0.00,,,0.00,Wunderground v.1.15,2013-09-16 05:50:00,
2013-09-16 01:55:00,62.3,61.7,30.15,West,267,0.0,0.0,98,0.00,,,0.00,Wunderground v.1.15,2013-09-16 05:55:00,
2013-09-16 02:00:00,62.3,61.7,30.15,West,267,0.0,0.0,98,0.00,,,0.00,Wunderground v.1.15,2013-09-16 06:00:00,
2013-09-16 02:05:00,62.3,61.7,30.15,West,267,0.0,0.0,98,0.00,,,0.00,Wunderground v.1.15,2013-09-16 06:05:00,
2013-09-16 02:15:00,62.4,61.8,30.15,West,267,0.0,0.0,98,0.00,,,0.00,Wunderground v.1.15,2013-09-16 06:15:00,
2013-09-16 02:25:00,62.3,61.7,30.14,West,267,0.0,0.0,98,0.00,,,0.00,Wunderground v.1.15,2013-09-16 06:25:00,
2013-09-16 02:30:00,62.3,61.7,30.15,West,267,0.0,0.0,98,0.00,,,0.00,Wunderground v.1.15,2013-09-16 06:30:00,
2013-09-16 02:35:00,62.3,61.7,30.15,West,267,0.0,0.0,98,0.00,,,0.00,Wunderground v.1.15,2013-09-16 06:35:00,
2013-09-16 02:40:00,62.3,61.7,30.14,West,267,0.0,0.0,98,0.00,,,0.00,Wunderground v.1.15,2013-09-16 06:40:00,
2013-09-16 02:50:00,62.3,61.7,30.14,West,267,0.0,0.0,98,0.00,,,0.00,Wunderground v.1.15,2013-09-16 06:50:00,
2013-09-16 02:55:00,62.3,61.7,30.14,West,267,0.0,0.0,98,0.00,,,0.00,Wunderground v.1.15,2013-09-16 06:55:00,
2013-09-16 03:00:00,62.3,61.7,30.13,West,267,0.0,0.0,98,0.00,,,0.00,Wunderground v.1.15,2013-09-16 07:00:00,
2013-09-16 03:05:00,62.4,61.8,30.13,West,267,0.0,0.0,98,0.00,,,0.00,Wunderground v.1.15,2013-09-16 07:05:00,
2013-09-16 03:15:00,62.4,61.8,30.13,West,267,0.0,0.0,98,0.00,,,0.00,Wunderground v.1.15,2013-09-16 07:15:00,
2013-09-16 03:20:00,62.3,61.7,30.13,West,267,0.0,0.0,98,0.00,,,0.00,Wunderground v.1.15,2013-09-16 07:20:00,
2013-09-16 03:25:00,62.3,61.7,30.13,West,267,0.0,0.0,98,0.00,,,0.00,Wunderground v.1.15,2013-09-16 07:25:00,
2013-09-16 03:35:00,62.1,61.5,30.13,West,267,0.0,0.0,98,0.00,,,0.00,Wunderground v.1.15,2013-09-16 07:35:00,
2013-09-16 03:40:00,62.1,61.5,30.13,West,267,0.0,0.0,98,0.00,,,0.00,Wunderground v.1.15,2013-09-16 07:40:00,
2013-09-16 03:45:00,62.0,61.4,30.13,West,267,0.0,0.0,98,0.00,,,0.00,Wunderground v.1.15,2013-09-16 07:45:00,
2013-09-16 03:50:00,62.0,61.4,30.13,West,267,0.0,0.0,98,0.00,,,0.00,Wunderground v.1.15,2013-09-16 07:50:00,
2013-09-16 04:00:00,61.9,61.3,30.12,West,267,0.0,0.0,98,0.00,,,0.00,Wunderground v.1.15,2013-09-16 08:00:00,
2013-09-16 04:05:00,62.0,61.4,30.13,West,267,0.0,0.0,98,0.00,,,0.00,Wunderground v.1.15,2013-09-16 08:05:00,
2013-09-16 04:15:00,62.0,61.4,30.12,West,267,0.0,0.0,98,0.00,,,0.00,Wunderground v.1.15,2013-09-16 08:15:00,
2013-09-16 04:20:00,62.1,61.5,30.12,West,267,0.0,0.0,98,0.00,,,0.00,Wunderground v.1.15,2013-09-16 08:20:00,
2013-09-16 04:25:00,62.2,61.6,30.12,West,267,0.0,0.0,98,0.00,,,0.00,Wunderground v.1.15,2013-09-16 08:25:00,
2013-09-16 04:30:00,62.2,61.9,30.12,West,267,0.0,0.0,99,0.00,,,0.00,Wunderground v.1.15,2013-09-16 08:30:00,
2013-09-16 04:40:00,62.5,62.2,30.12,West,267,0.0,0.0,99,0.00,,,0.00,Wunderground v.1.15,2013-09-16 08:40:00,
2013-09-16 04:45:00,62.7,62.4,30.13,West,267,0.0,0.0,99,0.00,,,0.00,Wunderground v.1.15,2013-09-16 08:45:00,
2013-09-16 04:50:00,62.8,62.5,30.12,West,267,0.0,0.0,99,0.00,,,0.00,Wunderground v.1.15,2013-09-16 08:50:00,
2013-09-16 04:55:00,62.9,62.6,30.12,West,267,0.0,0.0,99,0.00,,,0.00,Wunderground v.1.15,2013-09-16 08:55:00,
2013-09-16 05:00:00,63.1,62.8,30.12,West,267,0.0,0.0,99,0.95,,,0.02,Wunderground v.1.15,2013-09-16 09:00:00,
2013-09-16 05:05:00,63.2,62.9,30.12,West,267,0.0,0.0,99,0.22,,,0.05,Wunderground v.1.15,2013-09-16 09:05:00,
2013-09-16 05:15:00,63.7,63.4,30.12,West,267,0.0,0.0,99,0.17,,,0.07,Wunderground v.1.15,2013-09-16 09:15:00,
2013-09-16 05:20:00,64.0,63.7,30.12,West,267,0.0,0.0,99,0.10,,,0.07,Wunderground v.1.15,2013-09-16 09:20:00,
2013-09-16 05:25:00,64.3,64.0,30.12,West,267,0.0,0.0,99,0.05,,,0.07,Wunderground v.1.15,2013-09-16 09:25:00,
2013-09-16 05:30:00,64.7,64.7,30.12,West,267,0.0,0.0,100,0.04,,,0.07,Wunderground v.1.15,2013-09-16 09:30:00,
2013-09-16 05:35:00,65.0,65.0,30.12,North,351,0.0,1.0,100,0.00,,,0.07,Wunderground v.1.15,2013-09-16 09:35:00,
2013-09-16 05:40:00,65.4,65.4,30.12,WSW,251,0.0,0.0,100,0.00,,,0.08,Wunderground v.1.15,2013-09-16 09:40:00,
2013-09-16 05:50:00,65.8,65.8,30.12,WSW,251,0.0,0.0,100,0.00,,,0.08,Wunderground v.1.15,2013-09-16 09:50:00,
2013-09-16 05:55:00,65.8,65.5,30.12,WSW,251,0.0,0.0,99,0.00,,,0.08,Wunderground v.1.15,2013-09-16 09:55:00,
2013-09-16 06:00:00,65.8,65.5,30.12,WSW,251,0.0,0.0,99,0.00,,,0.08,Wunderground v.1.15,2013-09-16 10:00:00,
2013-09-16 06:05:00,65.9,65.6,30.12,WSW,251,0.0,0.0,99,0.00,,,0.08,Wunderground v.1.15,2013-09-16 10:05:00,
2013-09-16 06:15:00,65.9,65.6,30.12,WSW,251,0.0,0.0,99,0.00,,,0.08,Wunderground v.1.15,2013-09-16 10:15:00,
2013-09-16 06:20:00,65.9,65.6,30.12,WSW,251,0.0,0.0,99,0.00,,,0.08,Wunderground v.1.15,2013-09-16 10:20:00,
2013-09-16 06:30:00,66.0,65.7,30.12,WSW,251,0.0,0.0,99,0.00,,,0.08,Wunderground v.1.15,2013-09-16 10:30:00,
2013-09-16 06:35:00,66.0,65.7,30.12,WSW,251,0.0,0.0,99,0.00,,,0.08,Wunderground v.1.15,2013-09-16 10:35:00,
2013-09-16 06:40:00,65.9,65.6,30.12,WSW,251,0.0,0.0,99,0.00,,,0.08,Wunderground v.1.15,2013-09-16 10:40:00,
2013-09-16 06:45:00,66.0,65.7,30.12,WSW,251,0.0,0.0,99,0.00,,,0.08,Wunderground v.1.15,2013-09-16 10:45:00,
2013-09-16 06:55:00,66.0,65.7,30.12,WSW,251,0.0,0.0,99,0.00,,,0.08,Wunderground v.1.15,2013-09-16 10:55:00,
2013-09-16 07:00:00,66.0,65.7,30.12,WSW,251,0.0,0.0,99,0.00,,,0.08,Wunderground v.1.15,2013-09-16 11:00:00,
2013-09-16 07:05:00,66.1,65.8,30.12,WSW,251,0.0,0.0,99,0.00,,,0.08,Wunderground v.1.15,2013-09-16 11:05:00,
2013-09-16 07:15:00,66.1,65.8,30.12,WSW,251,0.0,0.0,99,0.00,,,0.08,Wunderground v.1.15,2013-09-16 11:15:00,
2013-09-16 07:20:00,66.1,66.1,30.13,WSW,251,0.0,0.0,100,0.00,,,0.08,Wunderground v.1.15,2013-09-16 11:20:00,
2013-09-16 07:25:00,66.3,66.3,30.13,WSW,251,0.0,0.0,100,0.00,,,0.08,Wunderground v.1.15,2013-09-16 11:25:00,
2013-09-16 07:35:00,66.4,66.4,30.13,WSW,251,0.0,0.0,100,0.00,,,0.08,Wunderground v.1.15,2013-09-16 11:35:00,
2013-09-16 07:40:00,66.6,66.6,30.13,WSW,251,0.0,0.0,100,0.00,,,0.08,Wunderground v.1.15,2013-09-16 11:40:00,
2013-09-16 07:45:00,66.7,66.7,30.13,WSW,251,0.0,0.0,100,0.00,,,0.08,Wunderground v.1.15,2013-09-16 11:45:00,
2013-09-16 07:50:00,66.8,66.8,30.13,WSW,251,0.0,0.0,100,0.00,,,0.08,Wunderground v.1.15,2013-09-16 11:50:00,
2013-09-16 07:55:00,67.0,67.0,30.14,WSW,251,0.0,0.0,100,0.00,,,0.08,Wunderground v.1.15,2013-09-16 11:55:00,
2013-09-16 08:05:00,67.1,67.1,30.13,WSW,251,0.0,0.0,100,0.00,,,0.08,Wunderground v.1.15,2013-09-16 12:05:00,
2013-09-16 08:15:00,67.4,67.4,30.13,WSW,251,0.0,0.0,100,0.00,,,0.08,Wunderground v.1.15,2013-09-16 12:15:00,
2013-09-16 08:20:00,67.6,67.6,30.13,WSW,251,0.0,0.0,100,0.00,,,0.08,Wunderground v.1.15,2013-09-16 12:20:00,
2013-09-16 08:25:00,67.9,67.9,30.12,WSW,251,0.0,0.0,100,0.00,,,0.08,Wunderground v.1.15,2013-09-16 12:25:00,
2013-09-16 08:30:00,68.4,68.4,30.12,WSW,251,0.0,0.0,100,0.00,,,0.08,Wunderground v.1.15,2013-09-16 12:30:00,
2013-09-16 08:35:00,68.6,68.6,30.12,WSW,251,0.0,0.0,100,0.00,,,0.08,Wunderground v.1.15,2013-09-16 12:35:00,
2013-09-16 08:45:00,69.0,69.0,30.13,WSW,251,0.0,0.0,100,0.00,,,0.08,Wunderground v.1.15,2013-09-16 12:45:00,
2013-09-16 08:50:00,69.2,69.2,30.13,WSW,251,0.0,0.0,100,0.00,,,0.08,Wunderground v.1.15,2013-09-16 12:50:00,
2013-09-16 08:55:00,69.4,69.4,30.13,WSW,251,0.0,0.0,100,0.00,,,0.08,Wunderground v.1.15,2013-09-16 12:55:00,
2013-09-16 09:05:00,69.6,69.6,30.13,WSW,251,0.0,0.0,100,0.00,,,0.08,Wunderground v.1.15,2013-09-16 13:05:00,
2013-09-16 09:15:00,69.9,69.9,30.13,WSW,251,0.0,0.0,100,0.00,,,0.08,Wunderground v.1.15,2013-09-16 13:15:00,
2013-09-16 09:20:00,70.1,70.1,30.13,WSW,251,0.0,0.0,100,0.00,,,0.08,Wunderground v.1.15,2013-09-16 13:20:00,
2013-09-16 09:25:00,70.2,70.2,30.13,WSW,251,0.0,0.0,100,0.00,,,0.08,Wunderground v.1.15,2013-09-16 13:25:00,
2013-09-16 09:30:00,70.3,70.3,30.13,WSW,251,0.0,0.0,100,0.00,,,0.08,Wunderground v.1.15,2013-09-16 13:30:00,
2013-09-16 09:35:00,70.5,70.5,30.13,WSW,251,0.0,0.0,100,0.00,,,0.08,Wunderground v.1.15,2013-09-16 13:35:00,
2013-09-16 09:45:00,70.8,70.8,30.13,WSW,251,0.0,0.0,100,0.00,,,0.08,Wunderground v.1.15,2013-09-16 13:45:00,
2013-09-16 09:50:00,71.0,71.0,30.13,South,186,0.0,0.0,100,0.00,,,0.08,Wunderground v.1.15,2013-09-16 13:50:00,
2013-09-16 09:55:00,71.1,71.1,30.13,South,186,0.0,0.0,100,0.00,,,0.08,Wunderground v.1.15,2013-09-16 13:55:00,
2013-09-16 10:00:00,71.1,71.1,30.13,SSE,166,0.0,0.0,100,0.00,,,0.08,Wunderground v.1.15,2013-09-16 14:00:00,
2013-09-16 10:05:00,71.2,71.2,30.13,SSE,166,0.0,0.0,100,0.00,,,0.08,Wunderground v.1.15,2013-09-16 14:05:00,
2013-09-16 10:15:00,71.3,71.3,30.13,SSE,163,0.0,0.0,100,0.00,,,0.08,Wunderground v.1.15,2013-09-16 14:15:00,
2013-09-16 10:20:00,71.4,71.4,30.13,SSE,163,0.0,0.0,100,0.00,,,0.08,Wunderground v.1.15,2013-09-16 14:20:00,
2013-09-16 10:30:00,71.6,71.6,30.13,SW,227,0.0,3.0,100,0.00,,,0.08,Wunderground v.1.15,2013-09-16 14:30:00,
2013-09-16 10:35:00,71.8,71.8,30.13,SW,226,0.0,3.0,100,0.00,,,0.08,Wunderground v.1.15,2013-09-16 14:35:00,
2013-09-16 10:40:00,71.9,71.9,30.13,SW,226,0.0,0.0,100,0.00,,,0.08,Wunderground v.1.15,2013-09-16 14:40:00,
2013-09-16 10:50:00,71.9,71.9,30.13,South,188,0.0,0.0,100,0.00,,,0.08,Wunderground v.1.15,2013-09-16 14:50:00,
2013-09-16 10:55:00,72.1,72.1,30.12,SSW,209,0.0,0.0,100,0.00,,,0.08,Wunderground v.1.15,2013-09-16 14:55:00,
2013-09-16 11:00:00,72.3,72.3,30.12,SSW,209,0.0,0.0,100,0.00,,,0.08,Wunderground v.1.15,2013-09-16 15:00:00,
2013-09-16 11:05:00,72.5,72.5,30.13,NNE,25,0.0,0.0,100,0.00,,,0.08,Wunderground v.1.15,2013-09-16 15:05:00,
2013-09-16 11:15:00,72.9,72.6,30.12,WNW,290,0.0,1.0,99,0.00,,,0.08,Wunderground v.1.15,2013-09-16 15:15:00,
2013-09-16 11:20:00,72.9,72.6,30.12,South,180,0.0,0.0,99,0.00,,,0.08,Wunderground v.1.15,2013-09-16 15:20:00,
2013-09-16 11:30:00,73.5,72.9,30.12,SSW,210,0.0,3.0,98,0.00,,,0.08,Wunderground v.1.15,2013-09-16 15:30:00,
2013-09-16 11:35:00,73.9,73.3,30.12,NW,309,1.0,3.0,98,0.00,,,0.08,Wunderground v.1.15,2013-09-16 15:35:00,
2013-09-16 11:40:00,74.4,73.5,30.11,SE,129,1.0,2.0,97,0.00,,,0.08,Wunderground v.1.15,2013-09-16 15:40:00,
2013-09-16 11:45:00,75.0,73.5,30.11,SW,229,1.0,2.0,95,0.00,,,0.08,Wunderground v.1.15,2013-09-16 15:45:00,
2013-09-16 11:50:00,75.5,73.0,30.11,SSW,211,1.0,2.0,92,0.00,,,0.08,Wunderground v.1.15,2013-09-16 15:50:00,
2013-09-16 12:00:00,76.6,73.1,30.11,WSW,250,1.0,1.0,89,0.00,,,0.08,Wunderground v.1.15,2013-09-16 16:00:00,
2013-09-16 12:05:00,77.2,72.3,30.11,SE,139,1.0,1.0,85,0.00,,,0.08,Wunderground v.1.15,2013-09-16 16:05:00,
2013-09-16 12:15:00,77.8,71.5,30.11,North,355,1.0,2.0,81,0.00,,,0.08,Wunderground v.1.15,2013-09-16 16:15:00,
2013-09-16 12:20:00,78.2,71.5,30.11,SW,221,1.0,1.0,80,0.00,,,0.08,Wunderground v.1.15,2013-09-16 16:20:00,
2013-09-16 12:25:00,78.6,71.9,30.11,SSW,207,1.0,1.0,80,0.00,,,0.08,Wunderground v.1.15,2013-09-16 16:25:00,
2013-09-16 12:30:00,78.7,71.3,30.10,SSE,166,1.0,1.0,78,0.00,,,0.08,Wunderground v.1.15,2013-09-16 16:30:00,
2013-09-16 12:40:00,79.3,72.2,30.10,SSE,158,1.0,1.0,79,0.00,,,0.08,Wunderground v.1.15,2013-09-16 16:40:00,
2013-09-16 12:45:00,79.6,71.0,30.10,WNW,301,1.0,1.0,75,0.00,,,0.08,Wunderground v.1.15,2013-09-16 16:45:00,
2013-09-16 12:50:00,79.9,72.0,30.09,NW,319,0.0,0.0,77,0.00,,,0.08,Wunderground v.1.15,2013-09-16 16:50:00,
2013-09-16 12:55:00,79.9,71.3,30.09,NW,319,0.0,0.0,75,0.00,,,0.08,Wunderground v.1.15,2013-09-16 16:55:00,
2013-09-16 13:05:00,80.2,69.1,30.09,SSW,208,1.0,3.0,69,0.00,,,0.08,Wunderground v.1.15,2013-09-16 17:05:00,
2013-09-16 13:15:00,80.6,70.3,30.09,NW,311,1.0,1.0,71,0.00,,,0.08,Wunderground v.1.15,2013-09-16 17:15:00,
2013-09-16 13:20:00,80.6,68.6,30.09,NW,319,1.0,1.0,67,0.00,,,0.08,Wunderground v.1.15,2013-09-16 17:20:00,
2013-09-16 13:25:00,80.8,69.2,30.09,NW,319,0.0,1.0,68,0.00,,,0.08,Wunderground v.1.15,2013-09-16 17:25:00,
2013-09-16 13:30:00,80.7,68.3,30.08,NNW,342,0.0,0.0,66,0.00,,,0.08,Wunderground v.1.15,2013-09-16 17:30:00,
2013-09-16 13:35:00,80.8,69.7,30.08,SSW,210,0.0,3.0,69,0.00,,,0.08,Wunderground v.1.15,2013-09-16 17:35:00,
2013-09-16 13:45:00,81.1,68.2,30.08,WNW,288,1.0,1.0,65,0.00,,,0.08,Wunderground v.1.15,2013-09-16 17:45:00,
2013-09-16 13:50:00,81.0,69.4,30.08,WNW,288,0.0,0.0,68,0.00,,,0.08,Wunderground v.1.15,2013-09-16 17:50:00,
2013-09-16 13:55:00,80.8,68.8,30.08,East,101,0.0,3.0,67,0.00,,,0.08,Wunderground v.1.15,2013-09-16 17:55:00,
2013-09-16 14:00:00,80.5,68.5,30.08,East,96,1.0,1.0,67,0.00,,,0.08,Wunderground v.1.15,2013-09-16 18:00:00,
2013-09-16 14:05:00,80.3,69.2,30.08,East,94,0.0,1.0,69,0.00,,,0.08,Wunderground v.1.15,2013-09-16 18:05:00,
2013-09-16 14:15:00,80.9,68.5,30.08,South,178,0.0,2.0,66,0.00,,,0.08,Wunderground v.1.15,2013-09-16 18:15:00,
2013-09-16 14:25:00,82.0,67.2,30.07,SE,130,1.0,1.0,61,0.00,,,0.08,Wunderground v.1.15,2013-09-16 18:25:00,
2013-09-16 14:30:00,82.3,67.0,30.07,West,261,1.0,1.0,60,0.00,,,0.08,Wunderground v.1.15,2013-09-16 18:30:00,
2013-09-16 14:35:00,82.7,66.9,30.07,SSW,196,1.0,1.0,59,0.00,,,0.08,Wunderground v.1.15,2013-09-16 18:35:00,
2013-09-16 14:40:00,82.9,66.1,30.07,ESE,121,1.0,1.0,57,0.00,,,0.08,Wunderground v.1.15,2013-09-16 18:40:00,
2013-09-16 14:50:00,83.7,67.8,30.06,NW,311,1.0,1.0,59,0.00,,,0.08,Wunderground v.1.15,2013-09-16 18:50:00,
2013-09-16 14:55:00,84.0,70.5,30.06,NW,315,1.0,1.0,64,0.00,,,0.08,Wunderground v.1.15,2013-09-16 18:55:00,
2013-09-16 15:00:00,84.0,68.1,30.06,NW,315,0.0,0.0,59,0.00,,,0.08,Wunderground v.1.15,2013-09-16 19:00:00,
2013-09-16 15:05:00,84.1,66.7,30.06,SE,140,1.0,2.0,56,0.00,,,0.08,Wunderground v.1.15,2013-09-16 19:05:00,
2013-09-16 15:15:00,84.1,66.7,30.06,South,182,1.0,1.0,56,0.00,,,0.08,Wunderground v.1.15,2013-09-16 19:15:00,
2013-09-16 15:20:00,84.1,66.2,30.06,NNW,342,1.0,1.0,55,0.00,,,0.08,Wunderground v.1.15,2013-09-16 19:20:00,
2013-09-16 15:30:00,84.4,65.9,30.05,West,280,1.0,1.0,54,0.00,,,0.08,Wunderground v.1.15,2013-09-16 19:30:00,
2013-09-16 15:35:00,84.7,68.3,30.05,NNW,338,1.0,1.0,58,0.00,,,0.08,Wunderground v.1.15,2013-09-16 19:35:00,
2013-09-16 15:40:00,84.9,65.9,30.05,WNW,297,1.0,1.0,53,0.00,,,0.08,Wunderground v.1.15,2013-09-16 19:40:00,
2013-09-16 15:45:00,85.1,66.0,30.04,NW,306,0.0,1.0,53,0.00,,,0.08,Wunderground v.1.15,2013-09-16 19:45:00,
2013-09-16 15:50:00,85.6,67.0,30.04,NW,323,0.0,0.0,54,0.00,,,0.08,Wunderground v.1.15,2013-09-16 19:50:00,
2013-09-16 16:00:00,85.5,64.7,30.04,NNE,15,1.0,1.0,50,0.00,,,0.08,Wunderground v.1.15,2013-09-16 20:00:00,
2013-09-16 16:05:00,85.2,66.1,30.04,NNW,348,1.0,1.0,53,0.00,,,0.08,Wunderground v.1.15,2013-09-16 20:05:00,
2013-09-16 16:15:00,85.0,67.5,30.04,NW,313,0.0,0.0,56,0.00,,,0.08,Wunderground v.1.15,2013-09-16 20:15:00,
2013-09-16 16:20:00,85.2,66.7,30.04,WSW,245,0.0,1.0,54,0.00,,,0.08,Wunderground v.1.15,2013-09-16 20:20:00,
2013-09-16 16:25:00,85.2,66.1,30.04,ENE,70,1.0,1.0,53,0.00,,,0.08,Wunderground v.1.15,2013-09-16 20:25:00,
2013-09-16 16:30:00,84.5,67.6,30.04,NNE,31,1.0,1.0,57,0.00,,,0.08,Wunderground v.1.15,2013-09-16 20:30:00,
2013-09-16 16:40:00,83.5,66.7,30.05,SSE,161,1.0,6.0,57,0.00,,,0.08,Wunderground v.1.15,2013-09-16 20:40:00,
2013-09-16 16:45:00,82.8,67.5,30.05,North,355,1.0,6.0,60,0.00,,,0.08,Wunderground v.1.15,2013-09-16 20:45:00,
2013-09-16 16:50:00,82.2,66.9,30.05,North,360,0.0,0.0,60,0.00,,,0.08,Wunderground v.1.15,2013-09-16 20:50:00,
2013-09-16 17:00:00,81.1,66.4,30.05,North,5,0.0,1.0,61,0.00,,,0.08,Wunderground v.1.15,2013-09-16 21:00:00,
2013-09-16 17:05:00,80.6,66.4,30.06,ENE,66,0.0,1.0,62,0.00,,,0.08,Wunderground v.1.15,2013-09-16 21:05:00,
2013-09-16 17:15:00,80.2,66.9,30.06,South,181,0.0,0.0,64,0.00,,,0.08,Wunderground v.1.15,2013-09-16 21:15:00,
2013-09-16 17:20:00,80.6,68.2,30.07,South,181,0.0,0.0,66,0.00,,,0.08,Wunderground v.1.15,2013-09-16 21:20:00,
2013-09-16 17:25:00,80.6,66.4,30.07,WNW,300,0.0,3.0,62,0.00,,,0.08,Wunderground v.1.15,2013-09-16 21:25:00,
2013-09-16 17:30:00,80.2,66.5,30.07,ESE,113,1.0,2.0,63,0.00,,,0.08,Wunderground v.1.15,2013-09-16 21:30:00,
2013-09-16 17:40:00,79.3,65.6,30.07,NNE,31,0.0,0.0,63,0.00,,,0.08,Wunderground v.1.15,2013-09-16 21:40:00,
2013-09-16 17:45:00,79.0,65.3,30.08,NE,35,0.0,0.0,63,0.00,,,0.08,Wunderground v.1.15,2013-09-16 21:45:00,
2013-09-16 17:50:00,78.7,65.5,30.08,North,11,0.0,0.0,64,0.00,,,0.08,Wunderground v.1.15,2013-09-16 21:50:00,
2013-09-16 17:55:00,78.6,65.4,30.08,NNE,15,0.0,0.0,64,0.00,,,0.08,Wunderground v.1.15,2013-09-16 21:55:00,
2013-09-16 18:05:00,78.0,65.7,30.08,SSE,159,0.0,0.0,66,0.00,,,0.08,Wunderground v.1.15,2013-09-16 22:05:00,
2013-09-16 18:15:00,77.5,65.7,30.08,NE,47,0.0,0.0,67,0.00,,,0.08,Wunderground v.1.15,2013-09-16 22:15:00,
2013-09-16 18:20:00,77.3,65.5,30.09,NNE,12,0.0,0.0,67,0.00,,,0.08,Wunderground v.1.15,2013-09-16 22:20:00,
2013-09-16 18:25:00,77.2,65.0,30.09,North,355,0.0,0.0,66,0.00,,,0.08,Wunderground v.1.15,2013-09-16 22:25:00,
2013-09-16 18:30:00,77.1,65.3,30.09,North,355,0.0,0.0,67,0.00,,,0.08,Wunderground v.1.15,2013-09-16 22:30:00,
2013-09-16 18:35:00,76.9,64.7,30.09,SE,139,0.0,0.0,66,0.00,,,0.08,Wunderground v.1.15,2013-09-16 22:35:00,
2013-09-16 18:45:00,76.5,65.1,30.09,ENE,61,0.0,1.0,68,0.00,,,0.08,Wunderground v.1.15,2013-09-16 22:45:00,
2013-09-16 18:50:00,76.2,65.7,30.09,East,84,0.0,0.0,70,0.00,,,0.08,Wunderground v.1.15,2013-09-16 22:50:00,
2013-09-16 18:55:00,75.8,65.3,30.09,East,84,0.0,0.0,70,0.00,,,0.08,Wunderground v.1.15,2013-09-16 22:55:00,
2013-09-16 19:00:00,75.4,65.3,30.09,East,84,0.0,0.0,71,0.00,,,0.08,Wunderground v.1.15,2013-09-16 23:00:00,
2013-09-16 19:05:00,75.0,65.4,30.09,East,84,0.0,0.0,72,0.00,,,0.08,Wunderground v.1.15,2013-09-16 23:05:00,
2013-09-16 19:15:00,74.2,65.0,30.10,East,80,0.0,1.0,73,0.00,,,0.08,Wunderground v.1.15,2013-09-16 23:15:00,
2013-09-16 19:20:00,74.0,64.8,30.10,ENE,78,0.0,0.0,73,0.00,,,0.08,Wunderground v.1.15,2013-09-16 23:20:00,
2013-09-16 19:25:00,73.7,64.9,30.10,East,81,0.0,0.0,74,0.00,,,0.08,Wunderground v.1.15,2013-09-16 23:25:00,
2013-09-16 19:30:00,73.4,64.6,30.10,East,81,0.0,0.0,74,0.00,,,0.08,Wunderground v.1.15,2013-09-16 23:30:00,
2013-09-16 19:35:00,73.0,64.6,30.10,East,81,0.0,0.0,75,0.00,,,0.08,Wunderground v.1.15,2013-09-16 23:35:00,
2013-09-16 19:45:00,72.5,64.9,30.11,East,81,0.0,0.0,77,0.00,,,0.08,Wunderground v.1.15,2013-09-16 23:45:00,
2013-09-16 19:50:00,72.2,64.6,30.11,East,81,0.0,0.0,77,0.00,,,0.08,Wunderground v.1.15,2013-09-16 23:50:00,
2013-09-16 19:55:00,72.0,65.5,30.11,East,81,0.0,0.0,80,0.00,,,0.08,Wunderground v.1.15,2013-09-16 23:55:00,
2013-09-16 20:00:00,71.7,64.8,30.12,East,81,0.0,0.0,79,0.00,,,0.08,Wunderground v.1.15,2013-09-17 00:00:00,
2013-09-16 20:05:00,71.6,65.1,30.12,East,81,0.0,0.0,80,0.00,,,0.08,Wunderground v.1.15,2013-09-17 00:05:00,
2013-09-16 20:15:00,71.3,64.8,30.13,SW,224,0.0,0.0,80,0.00,,,0.08,Wunderground v.1.15,2013-09-17 00:15:00,
2013-09-16 20:25:00,71.2,64.7,30.13,SW,224,0.0,0.0,80,0.00,,,0.08,Wunderground v.1.15,2013-09-17 00:25:00,
2013-09-16 20:30:00,71.1,64.3,30.14,North,355,0.0,0.0,79,0.00,,,0.08,Wunderground v.1.15,2013-09-17 00:30:00,
2013-09-16 20:35:00,71.1,64.3,30.14,North,355,0.0,0.0,79,0.00,,,0.08,Wunderground v.1.15,2013-09-17 00:35:00,
2013-09-16 20:40:00,71.1,64.6,30.14,NW,313,0.0,0.0,80,0.00,,,0.08,Wunderground v.1.15,2013-09-17 00:40:00,
2013-09-16 20:45:00,71.2,64.7,30.14,North,355,0.0,0.0,80,0.00,,,0.08,Wunderground v.1.15,2013-09-17 00:45:00,
2013-09-16 20:55:00,71.2,65.1,30.15,NW,322,0.0,0.0,81,0.00,,,0.08,Wunderground v.1.15,2013-09-17 00:55:00,
2013-09-16 21:00:00,71.2,65.1,30.15,NNW,327,0.0,0.0,81,0.00,,,0.08,Wunderground v.1.15,2013-09-17 01:00:00,
2013-09-16 21:05:00,71.2,65.1,30.15,NNE,24,0.0,0.0,81,0.00,,,0.08,Wunderground v.1.15,2013-09-17 01:05:00,
2013-09-16 21:15:00,71.2,65.1,30.16,East,97,0.0,0.0,81,0.00,,,0.08,Wunderground v.1.15,2013-09-17 01:15:00,
2013-09-16 21:20:00,71.1,65.3,30.16,ENE,77,0.0,0.0,82,0.00,,,0.08,Wunderground v.1.15,2013-09-17 01:20:00,
2013-09-16 21:25:00,71.1,65.3,30.16,ENE,64,0.0,0.0,82,0.00,,,0.08,Wunderground v.1.15,2013-09-17 01:25:00,
2013-09-16 21:35:00,70.9,65.5,30.16,ESE,105,0.0,0.0,83,0.00,,,0.08,Wunderground v.1.15,2013-09-17 01:35:00,
2013-09-16 21:40:00,70.8,65.4,30.16,NW,306,0.0,0.0,83,0.00,,,0.08,Wunderground v.1.15,2013-09-17 01:40:00,
2013-09-16 21:45:00,70.6,65.2,30.17,NW,316,0.0,0.0,83,0.00,,,0.08,Wunderground v.1.15,2013-09-17 01:45:00,
2013-09-16 21:55:00,70.3,65.2,30.17,ESE,115,0.0,0.0,84,0.00,,,0.08,Wunderground v.1.15,2013-09-17 01:55:00,
2013-09-16 22:00:00,70.2,64.8,30.18,ESE,108,0.0,0.0,83,0.00,,,0.08,Wunderground v.1.15,2013-09-17 02:00:00,
2013-09-16 22:05:00,70.0,64.6,30.18,WNW,292,0.0,0.0,83,0.00,,,0.08,Wunderground v.1.15,2013-09-17 02:05:00,
2013-09-16 22:15:00,69.8,64.1,30.19,WNW,296,0.0,0.0,82,0.00,,,0.08,Wunderground v.1.15,2013-09-17 02:15:00,
2013-09-16 22:20:00,69.7,63.6,30.19,West,269,0.0,0.0,81,0.00,,,0.08,Wunderground v.1.15,2013-09-17 02:20:00,
2013-09-16 22:25:00,69.5,63.1,30.19,NNW,331,0.0,0.0,80,0.00,,,0.08,Wunderground v.1.15,2013-09-17 02:25:00,
2013-09-16 22:30:00,69.4,63.0,30.19,SSW,205,0.0,0.0,80,0.00,,,0.08,Wunderground v.1.15,2013-09-17 02:30:00,
2013-09-16 22:40:00,69.2,62.4,30.18,SW,219,0.0,0.0,79,0.00,,,0.08,Wunderground v.1.15,2013-09-17 02:40:00,
2013-09-16 22:45:00,69.0,62.6,30.18,East,95,0.0,0.0,80,0.00,,,0.08,Wunderground v.1.15,2013-09-17 02:45:00,
2013-09-16 22:50:00,68.9,62.8,30.18,East,95,0.0,0.0,81,0.00,,,0.08,Wunderground v.1.15,2013-09-17 02:50:00,
2013-09-16 23:00:00,68.5,62.4,30.19,East,88,0.0,0.0,81,0.00,,,0.08,Wunderground v.1.15,2013-09-17 03:00:00,
2013-09-16 23:05:00,68.3,62.2,30.19,WNW,282,0.0,0.0,81,0.00,,,0.08,Wunderground v.1.15,2013-09-17 03:05:00,
2013-09-16 23:15:00,68.1,62.4,30.19,WSW,257,0.0,1.0,82,0.00,,,0.08,Wunderground v.1.15,2013-09-17 03:15:00,
2013-09-16 23:20:00,67.9,62.2,30.19,WSW,253,0.0,0.0,82,0.00,,,0.08,Wunderground v.1.15,2013-09-17 03:20:00,
2013-09-16 23:25:00,67.8,62.1,30.19,South,175,0.0,0.0,82,0.00,,,0.08,Wunderground v.1.15,2013-09-17 03:25:00,
2013-09-16 23:30:00,67.7,62.3,30.20,South,175,0.0,0.0,83,0.00,,,0.08,Wunderground v.1.15,2013-09-17 03:30:00,
2013-09-16 23:40:00,67.5,62.2,30.19,North,360,0.0,0.0,83,0.00,,,0.08,Wunderground v.1.15,2013-09-17 03:40:00,
2013-09-16 23:45:00,67.4,62.1,30.20,NW,326,0.0,0.0,83,0.00,,,0.08,Wunderground v.1.15,2013-09-17 03:45:00,
2013-09-16 23:50:00,67.3,62.3,30.20,NNW,329,0.0,0.0,84,0.00,,,0.08,Wunderground v.1.15,2013-09-17 03:50:00,
2013-09-16 23:55:00,67.2,62.2,30.20,WNW,294,0.0,0.0,84,0.00,,,0.08,Wunderground v.1.15,2013-09-17 03:55:00,